Time,TemperatureF,DewpointF,PressureIn,WindDirection,WindDirectionDegrees,WindSpeedMPH,WindSpeedGustMPH,Humidity,HourlyPrecipIn,Conditions,Clouds,dailyrainin,SoftwareType,DateUTC
2013-04-17 00:01:00,61.5,60.9,30.03,ESE,112,1.1,-999.0,98,-99.99,,,0.00,Acu-Link.com,2013-04-17 04:01:00,
2013-04-17 00:16:00,61.5,61.2,30.02,ESE,112,0.0,-999.0,99,-99.99,,,0.00,Acu-Link.com,2013-04-17 04:16:00,
2013-04-17 00:31:00,61.5,60.9,30.02,West,270,0.0,-999.0,98,-99.99,,,0.00,Acu-Link.com,2013-04-17 04:31:00,
2013-04-17 00:47:00,61.7,61.4,30.01,SSE,157,0.0,-999.0,99,-99.99,,,0.00,Acu-Link.com,2013-04-17 04:47:00,
2013-04-17 01:02:00,61.7,61.4,30.01,North,0,0.0,-999.0,99,-99.99,,,0.00,Acu-Link.com,2013-04-17 05:02:00,
2013-04-17 01:17:00,61.7,61.4,30.01,ESE,112,1.7,-999.0,99,-99.99,,,0.00,Acu-Link.com,2013-04-17 05:17:00,
2013-04-17 01:32:00,61.7,61.1,30.00,ESE,112,1.1,-999.0,98,-99.99,,,0.00,Acu-Link.com,2013-04-17 05:32:00,
2013-04-17 01:47:00,61.3,61.0,30.00,ESE,112,0.0,-999.0,99,-99.99,,,0.01,Acu-Link.com,2013-04-17 05:47:00,
2013-04-17 02:03:00,61.3,61.0,29.99,ESE,112,2.2,-999.0,99,-99.99,,,0.01,Acu-Link.com,2013-04-17 06:03:00,
2013-04-17 02:18:00,61.2,60.6,29.99,West,270,0.0,-999.0,98,-99.99,,,0.01,Acu-Link.com,2013-04-17 06:18:00,
2013-04-17 02:33:00,60.6,60.3,29.98,NE,45,1.7,-999.0,99,-99.99,,,0.01,Acu-Link.com,2013-04-17 06:33:00,
2013-04-17 02:48:00,60.6,60.3,29.99,West,270,0.0,-999.0,99,-99.99,,,0.01,Acu-Link.com,2013-04-17 06:48:00,
2013-04-17 03:03:00,60.6,60.3,29.99,SE,135,1.1,-999.0,99,-99.99,,,0.02,Acu-Link.com,2013-04-17 07:03:00,
2013-04-17 03:19:00,60.8,60.5,30.00,SE,135,2.2,-999.0,99,-99.99,,,0.02,Acu-Link.com,2013-04-17 07:19:00,
2013-04-17 03:34:00,61.0,60.7,29.99,ESE,112,1.7,-999.0,99,-99.99,,,0.02,Acu-Link.com,2013-04-17 07:34:00,
2013-04-17 03:49:00,61.2,60.9,29.99,ESE,112,4.2,-999.0,99,-99.99,,,0.02,Acu-Link.com,2013-04-17 07:49:00,
2013-04-17 04:04:00,61.2,60.9,29.99,ESE,112,3.2,-999.0,99,-99.99,,,0.02,Acu-Link.com,2013-04-17 08:04:00,
2013-04-17 04:19:00,61.2,60.9,30.00,SE,135,2.2,-999.0,99,-99.99,,,0.02,Acu-Link.com,2013-04-17 08:19:00,
2013-04-17 04:34:00,60.8,60.5,30.00,ESE,112,2.2,-999.0,99,-99.99,,,0.15,Acu-Link.com,2013-04-17 08:34:00,
2013-04-17 04:50:00,60.8,60.5,30.00,SE,135,4.2,-999.0,99,-99.99,,,0.18,Acu-Link.com,2013-04-17 08:50:00,
2013-04-17 05:05:00,61.2,60.9,29.99,WNW,292,1.7,-999.0,99,-99.99,,,0.18,Acu-Link.com,2013-04-17 09:05:00,
2013-04-17 05:20:00,61.2,60.9,29.99,SSE,157,4.2,-999.0,99,-99.99,,,0.18,Acu-Link.com,2013-04-17 09:20:00,
2013-04-17 05:36:00,61.3,61.0,29.98,ESE,112,2.7,-999.0,99,-99.99,,,0.18,Acu-Link.com,2013-04-17 09:36:00,
2013-04-17 06:06:00,61.3,61.0,30.01,ESE,112,2.2,-999.0,99,-99.99,,,0.18,Acu-Link.com,2013-04-17 10:06:00,
2013-04-17 06:21:00,61.5,61.2,30.03,NE,45,2.7,-999.0,99,-99.99,,,0.19,Acu-Link.com,2013-04-17 10:21:00,
2013-04-17 06:36:00,61.0,60.7,30.02,ESE,112,5.3,-999.0,99,-99.99,,,0.19,Acu-Link.com,2013-04-17 10:36:00,
2013-04-17 06:52:00,61.0,60.7,30.03,SE,135,9.9,-999.0,99,-99.99,,,0.20,Acu-Link.com,2013-04-17 10:52:00,
2013-04-17 07:07:00,61.0,60.7,30.02,SE,135,4.2,-999.0,99,-99.99,,,0.23,Acu-Link.com,2013-04-17 11:07:00,
2013-04-17 07:22:00,61.5,61.2,30.09,ESE,112,4.7,-999.0,99,-99.99,,,0.23,Acu-Link.com,2013-04-17 11:22:00,
2013-04-17 07:37:00,61.5,61.2,30.06,SW,225,3.2,-999.0,99,-99.99,,,0.37,Acu-Link.com,2013-04-17 11:37:00,
2013-04-17 07:52:00,61.0,60.7,30.04,ESE,112,2.2,-999.0,99,-99.99,,,0.95,Acu-Link.com,2013-04-17 11:52:00,
2013-04-17 08:08:00,61.0,60.7,30.06,SE,135,1.7,-999.0,99,-99.99,,,0.97,Acu-Link.com,2013-04-17 12:08:00,
2013-04-17 08:23:00,61.0,60.7,30.04,ESE,112,3.2,-999.0,99,-99.99,,,0.97,Acu-Link.com,2013-04-17 12:23:00,
2013-04-17 08:38:00,61.0,60.7,30.04,SE,135,6.8,-999.0,99,-99.99,,,1.00,Acu-Link.com,2013-04-17 12:38:00,
2013-04-17 08:53:00,61.0,60.7,30.05,ESE,112,2.7,-999.0,99,-99.99,,,1.01,Acu-Link.com,2013-04-17 12:53:00,
2013-04-17 09:09:00,61.3,61.0,30.06,ESE,112,3.7,-999.0,99,-99.99,,,1.01,Acu-Link.com,2013-04-17 13:09:00,
2013-04-17 09:24:00,61.3,61.0,30.06,SSW,202,3.2,-999.0,99,-99.99,,,1.01,Acu-Link.com,2013-04-17 13:24:00,
2013-04-17 09:39:00,61.5,61.2,30.06,SE,135,2.7,-999.0,99,-99.99,,,1.01,Acu-Link.com,2013-04-17 13:39:00,
2013-04-17 09:54:00,61.3,61.0,30.07,South,180,5.3,-999.0,99,-99.99,,,1.01,Acu-Link.com,2013-04-17 13:54:00,
2013-04-17 10:09:00,61.0,60.7,30.06,SE,135,3.7,-999.0,99,-99.99,,,1.12,Acu-Link.com,2013-04-17 14:09:00,
2013-04-17 10:25:00,61.0,60.7,30.06,ESE,112,5.3,-999.0,99,-99.99,,,1.23,Acu-Link.com,2013-04-17 14:25:00,
2013-04-17 10:40:00,61.0,60.7,30.07,ESE,112,2.2,-999.0,99,-99.99,,,1.30,Acu-Link.com,2013-04-17 14:40:00,
2013-04-17 10:55:00,61.2,60.9,30.07,ESE,112,7.8,-999.0,99,-99.99,,,1.33,Acu-Link.com,2013-04-17 14:55:00,
2013-04-17 11:11:00,61.3,61.0,30.07,SE,135,7.3,-999.0,99,-99.99,,,1.36,Acu-Link.com,2013-04-17 15:11:00,
2013-04-17 11:26:00,62.1,61.8,30.07,SSE,157,3.2,-999.0,99,-99.99,,,1.37,Acu-Link.com,2013-04-17 15:26:00,
2013-04-17 11:41:00,61.5,61.2,30.07,SE,135,5.8,-999.0,99,-99.99,,,1.60,Acu-Link.com,2013-04-17 15:41:00,
2013-04-17 12:11:00,65.5,64.9,30.06,SE,135,5.3,-999.0,98,-99.99,,,1.80,Acu-Link.com,2013-04-17 16:11:00,
2013-04-17 12:27:00,66.7,65.8,30.06,SSE,157,2.2,-999.0,97,-99.99,,,1.80,Acu-Link.com,2013-04-17 16:27:00,
2013-04-17 12:42:00,68.2,65.8,30.06,ESE,112,6.8,-999.0,92,-99.99,,,1.80,Acu-Link.com,2013-04-17 16:42:00,
2013-04-17 12:57:00,68.7,65.3,30.05,West,270,5.3,-999.0,89,-99.99,,,1.80,Acu-Link.com,2013-04-17 16:57:00,
2013-04-17 13:12:00,68.0,65.0,30.04,NE,45,5.3,-999.0,90,-99.99,,,1.80,Acu-Link.com,2013-04-17 17:12:00,
2013-04-17 13:27:00,70.0,65.6,30.04,ESE,112,6.8,-999.0,86,-99.99,,,1.80,Acu-Link.com,2013-04-17 17:27:00,
2013-04-17 13:43:00,69.6,65.2,30.04,West,270,1.7,-999.0,86,-99.99,,,1.80,Acu-Link.com,2013-04-17 17:43:00,
2013-04-17 13:58:00,68.9,64.9,30.02,SE,135,3.2,-999.0,87,-99.99,,,1.80,Acu-Link.com,2013-04-17 17:58:00,
2013-04-17 14:13:00,67.6,63.6,30.03,ENE,67,4.2,-999.0,87,-99.99,,,1.80,Acu-Link.com,2013-04-17 18:13:00,
2013-04-17 14:28:00,70.0,64.9,30.02,West,270,7.3,-999.0,84,-99.99,,,1.80,Acu-Link.com,2013-04-17 18:28:00,
2013-04-17 14:44:00,71.1,65.3,30.01,WSW,247,7.8,-999.0,82,-99.99,,,1.80,Acu-Link.com,2013-04-17 18:44:00,
2013-04-17 14:59:00,72.0,65.8,30.00,SSE,157,4.2,-999.0,81,-99.99,,,1.80,Acu-Link.com,2013-04-17 18:59:00,
2013-04-17 15:14:00,72.5,66.0,29.99,ESE,112,9.4,-999.0,80,-99.99,,,1.80,Acu-Link.com,2013-04-17 19:14:00,
2013-04-17 15:29:00,71.4,64.5,29.98,SE,135,5.8,-999.0,79,-99.99,,,1.80,Acu-Link.com,2013-04-17 19:29:00,
2013-04-17 15:45:00,70.5,64.4,29.96,ESE,112,4.2,-999.0,81,-99.99,,,1.80,Acu-Link.com,2013-04-17 19:45:00,
2013-04-17 16:00:00,70.7,64.9,29.96,West,270,4.2,-999.0,82,-99.99,,,1.80,Acu-Link.com,2013-04-17 20:00:00,
2013-04-17 16:15:00,70.5,64.7,29.96,ESE,112,7.3,-999.0,82,-99.99,,,1.80,Acu-Link.com,2013-04-17 20:15:00,
2013-04-17 16:30:00,70.2,63.7,29.94,SE,135,7.3,-999.0,80,-99.99,,,1.80,Acu-Link.com,2013-04-17 20:30:00,
2013-04-17 16:45:00,70.5,63.3,29.93,West,270,2.7,-999.0,78,-99.99,,,1.80,Acu-Link.com,2013-04-17 20:45:00,
2013-04-17 17:01:00,71.4,64.2,29.93,ESE,112,3.7,-999.0,78,-99.99,,,1.80,Acu-Link.com,2013-04-17 21:01:00,
2013-04-17 17:16:00,71.8,64.6,29.93,South,180,5.3,-999.0,78,-99.99,,,1.80,Acu-Link.com,2013-04-17 21:16:00,
2013-04-17 17:31:00,72.1,64.5,29.93,WSW,247,4.2,-999.0,77,-99.99,,,1.80,Acu-Link.com,2013-04-17 21:31:00,
2013-04-17 17:47:00,71.6,64.0,29.93,ESE,112,1.7,-999.0,77,-99.99,,,1.80,Acu-Link.com,2013-04-17 21:47:00,
2013-04-17 18:02:00,71.8,64.9,29.91,West,270,1.7,-999.0,79,-99.99,,,1.80,Acu-Link.com,2013-04-17 22:02:00,
2013-04-17 18:17:00,70.7,63.5,29.92,SSE,157,3.2,-999.0,78,-99.99,,,1.80,Acu-Link.com,2013-04-17 22:17:00,
2013-04-17 18:32:00,70.5,64.0,29.91,SSE,157,2.7,-999.0,80,-99.99,,,1.80,Acu-Link.com,2013-04-17 22:32:00,
2013-04-17 18:47:00,70.7,64.6,29.91,SSE,157,1.7,-999.0,81,-99.99,,,1.80,Acu-Link.com,2013-04-17 22:47:00,
2013-04-17 19:03:00,70.2,64.4,29.90,SW,225,4.7,-999.0,82,-99.99,,,1.80,Acu-Link.com,2013-04-17 23:03:00,
2013-04-17 19:18:00,69.4,64.0,29.90,ESE,112,3.2,-999.0,83,-99.99,,,1.80,Acu-Link.com,2013-04-17 23:18:00,
2013-04-17 19:33:00,69.1,64.1,29.89,SSE,157,2.7,-999.0,84,-99.99,,,1.80,Acu-Link.com,2013-04-17 23:33:00,
2013-04-17 19:48:00,68.7,64.0,29.89,SSE,157,3.7,-999.0,85,-99.99,,,1.80,Acu-Link.com,2013-04-17 23:48:00,
2013-04-17 20:04:00,68.0,64.0,29.89,SSE,157,2.7,-999.0,87,-99.99,,,1.80,Acu-Link.com,2013-04-18 00:04:00,
2013-04-17 20:19:00,67.5,63.8,29.89,ESE,112,1.7,-999.0,88,-99.99,,,1.80,Acu-Link.com,2013-04-18 00:19:00,
2013-04-17 20:34:00,67.1,63.4,29.89,ESE,112,4.2,-999.0,88,-99.99,,,1.80,Acu-Link.com,2013-04-18 00:34:00,
2013-04-17 20:49:00,66.6,63.3,29.88,ESE,112,3.7,-999.0,89,-99.99,,,1.80,Acu-Link.com,2013-04-18 00:49:00,
2013-04-17 21:04:00,66.4,63.1,29.88,SSE,157,1.7,-999.0,89,-99.99,,,1.80,Acu-Link.com,2013-04-18 01:04:00,
2013-04-17 21:20:00,66.2,62.9,29.88,SSE,157,4.7,-999.0,89,-99.99,,,1.80,Acu-Link.com,2013-04-18 01:20:00,
2013-04-17 21:35:00,66.4,62.7,29.88,ESE,112,5.8,-999.0,88,-99.99,,,1.80,Acu-Link.com,2013-04-18 01:35:00,
2013-04-17 21:50:00,66.2,62.5,29.89,SW,225,4.2,-999.0,88,-99.99,,,1.80,Acu-Link.com,2013-04-18 01:50:00,
2013-04-17 22:05:00,66.0,62.7,29.88,ESE,112,5.3,-999.0,89,-99.99,,,1.80,Acu-Link.com,2013-04-18 02:05:00,
2013-04-17 22:20:00,65.7,62.4,29.88,SSE,157,4.2,-999.0,89,-99.99,,,1.80,Acu-Link.com,2013-04-18 02:20:00,
2013-04-17 22:36:00,65.5,62.5,29.88,SE,135,4.7,-999.0,90,-99.99,,,1.80,Acu-Link.com,2013-04-18 02:36:00,
2013-04-17 22:51:00,65.3,62.3,29.88,East,90,3.2,-999.0,90,-99.99,,,1.80,Acu-Link.com,2013-04-18 02:51:00,
2013-04-17 23:06:00,65.1,62.1,29.87,South,180,4.2,-999.0,90,-99.99,,,1.80,Acu-Link.com,2013-04-18 03:06:00,
2013-04-17 23:21:00,64.9,61.9,29.86,North,0,4.2,-999.0,90,-99.99,,,1.80,Acu-Link.com,2013-04-18 03:21:00,
2013-04-17 23:36:00,64.4,61.4,29.86,South,180,4.2,-999.0,90,-99.99,,,1.80,Acu-Link.com,2013-04-18 03:36:00,
2013-04-17 23:52:00,63.9,61.2,29.86,South,180,2.2,-999.0,91,-99.99,,,1.80,Acu-Link.com,2013-04-18 03:52:00,